Pagrindinis puslapis
METAR-TAF:

METAR-TAF

Oro uostai :

Salala, Omanas

platuma: 17-02N, ilguma: 054-05E, Aukštis: 20 m

Dabartinis oras

Ataskaita buvo paskelbta 1 valandą ir 24 minutes, ne 08:50 UTC
Vėjas 10 kt iš Pietų/Pietryčių, svyruoja nuo Pietryčių ir Pietų
Temperatūra 31°C
Drėgmė 59%
Slėgis 1012 hPa
Matomumas 10 km arba daugiau
Mažai debesys ne aukštis 2500 ft

METAR: OOSA 140850Z 15010KT 130V190 9999 FEW025 31/22 Q1012 NOSIG

Laikas: 14:14 (10:14 UTC)

Prognozė

Ataskaita buvo paskelbta 5 valandos ir 14 minutes, ne 05:00 UTC
Prognozė galioja nuo 14 metu 06 UTC su 15 metu 12 UTC
Vėjas 9 kt iš Pietų
Matomumas 10 km arba daugiau
Išsisklaidę debesys ne aukštis 2500 ft
Laikinai
nuo 14 metu 14 UTC su 15 metu 00 UTC
Vėjas 3 kt nuo kintamojo kryptimis
Išsisklaidę debesys ne aukštis 1400 ft
Su prošvaistėmis ne aukštis 2500 ft
lietus

TAF: OOSA 140500Z 1406/1512 17009KT 9999 SCT025 TEMPO 1414/1500 VRB03KT -RA SCT014 BKN025

Orai ataskaitas ir orų prognozės (METAR, TAF).

turimą stotys yra geltonos ir raudonos taškus žemėlapyje.

Perkelti pele per norėdami pamatyti stoties vardą.

Tada spustelėkite, norėdami matyti oro stebėjimo ir prognozės.

Norėdami pakeisti žemėlapį: spustelėkite ant žalios mygtukų su juodo kryžiaus žemyn,; žalią mygtuką su brūkšneliu, jei norite nutolinti; arba žalių rodyklių gretimoms žemėlapius.


METAR-TAF: